Time;durP1;ratioP1;P1;durP2;ratioP2;P2;SDS_P1;SDS_P2;PMS_P1;PMS_P2;Temp;Humidity;BMP_temperature;BMP_pressure;BME280_temperature;BME280_humidity;BME280_pressure;Samples;Min_cycle;Max_cycle;Signal;HPM_P1;HPM_P2
2021/07/05 00:00:12;;;;;;;17.63;7.63;;;;;;;17.05;100.00;97201.34;5012080;28;20104;-84
2021/07/05 00:02:40;;;;;;;14.48;7.65;;;;;;;17.08;100.00;97200.63;5012073;28;20074;-83
2021/07/05 00:05:09;;;;;;;18.40;7.78;;;;;;;17.09;100.00;97193.97;5011285;28;20565;-83
2021/07/05 00:07:36;;;;;;;14.85;8.40;;;;;;;17.12;100.00;97200.66;5013418;28;20197;-83
2021/07/05 00:10:07;;;;;;;19.50;8.20;;;;;;;17.13;100.00;97197.56;5013206;28;20044;-83
2021/07/05 00:12:34;;;;;;;13.40;7.72;;;;;;;17.23;100.00;97199.69;5014483;28;20064;-84
2021/07/05 00:15:04;;;;;;;13.98;7.68;;;;;;;17.19;100.00;97190.63;5015615;28;20049;-84
2021/07/05 00:17:31;;;;;;;13.95;7.43;;;;;;;17.14;100.00;97196.41;5017259;28;20046;-83
2021/07/05 00:19:59;;;;;;;19.40;7.40;;;;;;;17.29;100.00;97219.31;5016307;28;20517;-83
2021/07/05 00:22:29;;;;;;;19.45;7.88;;;;;;;17.29;100.00;97213.84;5017668;28;20042;-82
2021/07/05 00:24:55;;;;;;;13.40;7.57;;;;;;;17.27;100.00;97222.38;5019109;28;20077;-84
2021/07/05 00:27:22;;;;;;;20.02;7.85;;;;;;;17.25;100.00;97219.25;5022435;28;20456;-83
2021/07/05 00:29:48;;;;;;;16.15;7.82;;;;;;;17.27;100.00;97218.84;5016942;28;20045;-84
2021/07/05 00:32:15;;;;;;;15.38;7.40;;;;;;;17.25;100.00;97205.56;5016233;28;20064;-85
2021/07/05 00:34:42;;;;;;;12.45;7.50;;;;;;;17.30;100.00;97229.06;5017493;28;20034;-82
2021/07/05 00:37:09;;;;;;;10.52;7.63;;;;;;;17.35;100.00;97217.81;5017276;28;20052;-84
2021/07/05 00:39:36;;;;;;;16.10;7.40;;;;;;;17.43;100.00;97206.59;5017887;28;20049;-84
2021/07/05 00:42:02;;;;;;;14.27;7.85;;;;;;;17.40;100.00;97201.88;5017644;28;20046;-83
2021/07/05 00:44:29;;;;;;;14.00;7.65;;;;;;;17.52;100.00;97219.25;5017854;28;20038;-82
2021/07/05 00:46:56;;;;;;;21.40;7.85;;;;;;;17.53;100.00;97212.63;5017850;28;20042;-82
2021/07/05 00:49:23;;;;;;;11.75;7.40;;;;;;;17.55;100.00;97213.06;5018078;28;20425;-85
2021/07/05 00:52:04;;;;;;;14.13;6.90;;;;;;;17.56;100.00;97215.41;5016255;28;20050;-83
2021/07/05 00:54:31;;;;;;;13.80;7.63;;;;;;;17.53;100.00;97226.31;5017100;28;20121;-83
2021/07/05 00:57:00;;;;;;;13.30;7.13;;;;;;;17.58;100.00;97212.28;5017399;28;20336;-84
2021/07/05 00:59:28;;;;;;;13.20;6.53;;;;;;;17.61;100.00;97209.63;5016421;28;20061;-86
2021/07/05 01:01:54;;;;;;;11.63;7.00;;;;;;;17.64;100.00;97208.88;5017104;28;20041;-87
2021/07/05 01:04:21;;;;;;;12.52;6.53;;;;;;;17.59;100.00;97200.19;5017161;28;20046;-84
2021/07/05 01:06:48;;;;;;;15.20;6.47;;;;;;;17.64;100.00;97203.41;5018486;28;20049;-85
2021/07/05 01:09:15;;;;;;;13.63;6.70;;;;;;;17.68;100.00;97211.69;5034366;28;20114;-84
2021/07/05 01:11:41;;;;;;;12.32;6.68;;;;;;;17.63;100.00;97204.56;5031598;28;20453;-84
2021/07/05 01:14:08;;;;;;;13.75;6.88;;;;;;;17.59;100.00;97206.47;5033589;28;20570;-83
2021/07/05 01:16:35;;;;;;;15.32;6.90;;;;;;;17.63;100.00;97222.91;5032397;28;20045;-80
2021/07/05 01:19:02;;;;;;;14.60;7.07;;;;;;;17.53;100.00;97223.56;5032885;28;20050;-83
2021/07/05 01:21:28;;;;;;;15.80;7.25;;;;;;;17.52;100.00;97232.91;5033959;28;20042;-81
2021/07/05 01:23:55;;;;;;;12.48;7.25;;;;;;;17.53;100.00;97226.31;5031816;28;20101;-86
2021/07/05 01:26:22;;;;;;;11.85;7.15;;;;;;;17.47;100.00;97208.63;5015848;28;20069;-83
2021/07/05 01:28:48;;;;;;;12.73;7.15;;;;;;;17.49;100.00;97217.22;5028467;28;20444;-83
2021/07/05 01:31:15;;;;;;;14.70;7.45;;;;;;;17.43;100.00;97222.22;5012790;28;20073;-86
2021/07/05 01:33:42;;;;;;;11.05;6.95;;;;;;;17.44;100.00;97230.09;5023300;28;20046;-85
2021/07/05 01:36:11;;;;;;;10.10;6.25;;;;;;;17.44;100.00;97229.28;5031628;28;20042;-83
2021/07/05 01:38:42;;;;;;;14.57;6.45;;;;;;;17.39;100.00;97233.13;5030989;28;20041;-82
2021/07/05 01:41:11;;;;;;;10.75;5.60;;;;;;;17.41;100.00;97233.56;5018491;28;20134;-86
2021/07/05 01:43:40;;;;;;;8.43;5.50;;;;;;;17.38;100.00;97237.03;4982587;28;20045;-84
2021/07/05 01:46:06;;;;;;;8.73;5.50;;;;;;;17.31;100.00;97231.47;4980237;28;20039;-85
2021/07/05 01:48:34;;;;;;;7.65;4.72;;;;;;;17.25;100.00;97238.41;4991458;28;20222;-83
2021/07/05 01:51:01;;;;;;;9.85;4.93;;;;;;;17.19;100.00;97247.25;5008626;28;20050;-84
2021/07/05 01:53:30;;;;;;;9.50;4.53;;;;;;;17.20;100.00;97255.13;5017390;28;20127;-83
2021/07/05 01:55:56;;;;;;;9.27;4.75;;;;;;;17.22;100.00;97250.06;5017264;28;20057;-82
2021/07/05 01:58:23;;;;;;;7.22;4.85;;;;;;;17.14;100.00;97253.84;5020552;28;20038;-83
2021/07/05 02:00:52;;;;;;;8.43;4.80;;;;;;;17.09;100.00;97251.41;5017257;28;20056;-82
2021/07/05 02:03:18;;;;;;;7.50;5.00;;;;;;;17.06;100.00;97251.38;5015259;28;20116;-82
2021/07/05 02:05:46;;;;;;;6.03;4.43;;;;;;;16.95;100.00;97248.47;5013126;28;20497;-82
2021/07/05 02:08:14;;;;;;;10.18;5.18;;;;;;;16.95;100.00;97267.59;5004634;28;20051;-82
2021/07/05 02:10:42;;;;;;;8.85;5.30;;;;;;;16.90;100.00;97256.97;5015827;28;20052;-81
2021/07/05 02:13:10;;;;;;;13.35;5.63;;;;;;;16.90;100.00;97258.91;5015562;28;20077;-80
2021/07/05 02:15:41;;;;;;;13.90;5.43;;;;;;;16.86;100.00;97255.31;5017022;28;20094;-85
2021/07/05 02:18:07;;;;;;;10.98;5.68;;;;;;;16.82;100.00;97247.06;4999922;28;20042;-86
2021/07/05 02:20:34;;;;;;;9.75;5.53;;;;;;;16.83;100.00;97265.03;5016116;28;20034;-83
2021/07/05 02:23:05;;;;;;;10.38;5.60;;;;;;;16.78;100.00;97249.72;5015968;28;20107;-84
2021/07/05 02:25:33;;;;;;;11.32;5.72;;;;;;;16.83;100.00;97253.34;5014472;28;20050;-82
2021/07/05 02:28:08;;;;;;;9.18;5.65;;;;;;;16.77;100.00;97263.78;5015039;28;20048;-82
2021/07/05 02:30:36;;;;;;;7.30;5.60;;;;;;;16.78;100.00;97259.88;4997121;28;20050;-82
2021/07/05 02:33:04;;;;;;;9.95;5.40;;;;;;;16.68;100.00;97247.59;5013930;28;20042;-82
2021/07/05 02:35:34;;;;;;;9.40;5.50;;;;;;;16.72;100.00;97258.59;5013360;28;20489;-81
2021/07/05 02:38:04;;;;;;;13.15;5.20;;;;;;;16.58;100.00;97242.72;5010793;28;20037;-82
2021/07/05 02:40:34;;;;;;;9.20;5.07;;;;;;;16.70;100.00;97261.69;5003704;28;20049;-81
2021/07/05 02:43:02;;;;;;;14.27;5.82;;;;;;;16.61;100.00;97255.69;5012605;28;20049;-86
2021/07/05 02:45:34;;;;;;;8.18;6.00;;;;;;;16.54;100.00;97250.06;5029654;28;20501;-84
2021/07/05 02:48:03;;;;;;;7.00;5.43;;;;;;;16.60;100.00;97265.03;5012538;28;20042;-81
2021/07/05 02:50:30;;;;;;;8.60;5.55;;;;;;;16.59;100.00;97259.94;5001726;28;20051;-83
2021/07/05 02:52:58;;;;;;;11.90;6.30;;;;;;;16.52;100.00;97270.69;5017861;28;20050;-81
2021/07/05 02:55:25;;;;;;;10.23;5.40;;;;;;;16.53;100.00;97273.09;5018408;28;20052;-82
2021/07/05 02:57:52;;;;;;;12.90;5.65;;;;;;;16.45;100.00;97270.56;5016782;28;20059;-83
2021/07/05 03:00:26;;;;;;;9.95;5.78;;;;;;;16.39;100.00;97269.28;5014466;28;20081;-82
2021/07/05 03:02:53;;;;;;;10.57;5.72;;;;;;;16.44;100.00;97286.16;5017268;28;20733;-81
2021/07/05 03:05:22;;;;;;;8.88;5.95;;;;;;;16.39;100.00;97283.72;5014201;28;20041;-82
2021/07/05 03:07:49;;;;;;;10.05;5.57;;;;;;;16.39;100.00;97280.22;5014660;28;20109;-82
2021/07/05 03:10:19;;;;;;;9.07;5.40;;;;;;;16.40;100.00;97288.03;5014834;28;20518;-82
2021/07/05 03:12:46;;;;;;;8.75;5.22;;;;;;;16.40;100.00;97292.69;5013895;28;20126;-82
2021/07/05 03:15:14;;;;;;;7.50;5.20;;;;;;;16.40;100.00;97288.03;5015278;28;20050;-81
2021/07/05 03:17:42;;;;;;;9.63;5.03;;;;;;;16.46;100.00;97294.00;5002787;28;20034;-82
2021/07/05 03:20:15;;;;;;;7.53;4.70;;;;;;;16.39;100.00;97293.88;4994495;28;20049;-85
2021/07/05 03:22:44;;;;;;;6.90;4.88;;;;;;;16.39;100.00;97293.88;4994724;28;20089;-83
2021/07/05 03:25:13;;;;;;;8.48;5.60;;;;;;;16.37;100.00;97296.16;4996288;28;20054;-84
2021/07/05 03:27:40;;;;;;;9.40;5.47;;;;;;;16.35;100.00;97293.78;4998582;28;20049;-82
2021/07/05 03:30:09;;;;;;;8.95;5.65;;;;;;;16.32;100.00;97293.72;4989804;28;20050;-84
2021/07/05 03:32:36;;;;;;;9.20;5.60;;;;;;;16.27;100.00;97294.78;4994884;28;20176;-84
2021/07/05 03:35:05;;;;;;;7.45;5.68;;;;;;;16.29;100.00;97297.16;4994765;28;20050;-83
2021/07/05 03:37:32;;;;;;;6.97;5.60;;;;;;;16.24;100.00;97306.44;4996086;28;20054;-83
2021/07/05 03:39:59;;;;;;;15.10;6.13;;;;;;;16.20;100.00;97294.66;4994931;28;20042;-83
2021/07/05 03:42:25;;;;;;;9.77;6.28;;;;;;;16.19;100.00;97293.06;4978424;28;20077;-80
2021/07/05 03:44:52;;;;;;;13.02;6.10;;;;;;;16.15;100.00;97287.56;4994497;28;20146;-82
2021/07/05 03:47:18;;;;;;;8.65;6.22;;;;;;;16.15;100.00;97286.75;4997263;28;20050;-81
2021/07/05 03:49:45;;;;;;;8.77;6.47;;;;;;;16.17;100.00;97298.09;4999001;28;20042;-86
2021/07/05 03:52:12;;;;;;;9.25;6.18;;;;;;;16.13;100.00;97297.25;4998103;28;20046;-82
2021/07/05 03:54:38;;;;;;;9.52;6.25;;;;;;;16.15;100.00;97297.69;4997200;28;20132;-82
2021/07/05 03:57:06;;;;;;;10.02;6.15;;;;;;;16.17;100.00;97314.50;4998225;28;20054;-83
2021/07/05 03:59:33;;;;;;;10.85;6.10;;;;;;;16.16;100.00;97301.97;4998282;28;20439;-83
2021/07/05 04:01:59;;;;;;;10.07;5.90;;;;;;;16.28;100.00;97311.97;5034149;23;20088;-80
2021/07/05 04:04:26;;;;;;;9.77;6.20;;;;;;;16.29;100.00;97316.28;4998424;28;20053;-78
2021/07/05 04:06:53;;;;;;;10.27;5.90;;;;;;;16.30;100.00;97309.69;5005141;28;20042;-80
2021/07/05 04:09:21;;;;;;;10.70;5.97;;;;;;;16.32;100.00;97315.56;5013963;28;20487;-81
2021/07/05 04:11:48;;;;;;;9.20;5.60;;;;;;;16.39;100.00;97323.94;5018662;28;20111;-81
2021/07/05 04:14:14;;;;;;;11.57;5.88;;;;;;;16.34;100.00;97324.19;5019065;28;20076;-79
2021/07/05 04:16:51;;;;;;;8.07;5.28;;;;;;;16.34;100.00;97322.25;5016519;28;20465;-81
2021/07/05 04:19:18;;;;;;;9.63;5.53;;;;;;;16.35;100.00;97333.97;5001306;28;20046;-80
2021/07/05 04:21:44;;;;;;;10.35;5.38;;;;;;;16.32;100.00;97324.56;5003345;28;20042;-79
2021/07/05 04:24:11;;;;;;;8.95;5.50;;;;;;;16.33;100.00;97333.56;4995286;28;20451;-79
2021/07/05 04:26:37;;;;;;;7.22;4.95;;;;;;;16.32;100.00;97334.69;4994988;28;20050;-79
2021/07/05 04:29:04;;;;;;;8.70;5.35;;;;;;;16.36;100.00;97327.38;4996622;28;20046;-79
2021/07/05 04:31:30;;;;;;;10.05;4.82;;;;;;;16.41;100.00;97322.41;4981076;28;20403;-79
2021/07/05 04:33:57;;;;;;;9.77;5.22;;;;;;;16.41;100.00;97321.63;4981834;28;20236;-79
2021/07/05 04:36:28;;;;;;;8.02;5.50;;;;;;;16.45;100.00;97322.47;4982862;28;20134;-79
2021/07/05 04:38:56;;;;;;;7.97;5.30;;;;;;;16.44;100.00;97321.66;5010012;28;20102;-80
2021/07/05 04:41:24;;;;;;;11.73;5.63;;;;;;;16.38;100.00;97325.06;5012531;28;20050;-80
2021/07/05 04:43:53;;;;;;;10.00;5.57;;;;;;;16.40;100.00;97333.69;4995194;28;20042;-81
2021/07/05 04:46:21;;;;;;;16.05;5.63;;;;;;;16.37;100.00;97334.41;5000744;28;20060;-81
2021/07/05 04:48:49;;;;;;;10.63;5.60;;;;;;;16.27;100.00;97327.56;5019941;28;20377;-80
2021/07/05 04:51:18;;;;;;;12.63;6.38;;;;;;;16.25;100.00;97327.16;5019964;28;20050;-80
2021/07/05 04:53:45;;;;;;;12.68;6.18;;;;;;;16.21;100.00;97334.47;5019743;28;20057;-80
2021/07/05 04:56:13;;;;;;;14.90;6.60;;;;;;;16.14;100.00;97320.66;5018586;28;20312;-78
2021/07/05 04:58:42;;;;;;;11.45;7.18;;;;;;;16.14;100.00;97337.84;5010482;28;20037;-80
2021/07/05 05:01:10;;;;;;;11.35;6.88;;;;;;;16.14;100.00;97337.06;4982101;28;20042;-79
2021/07/05 05:03:39;;;;;;;12.38;6.85;;;;;;;16.15;100.00;97336.72;5018593;28;20042;-80
2021/07/05 05:06:08;;;;;;;11.93;6.60;;;;;;;16.14;100.00;97340.59;5019823;28;20042;-80
2021/07/05 05:08:38;;;;;;;9.25;6.35;;;;;;;16.13;100.00;97336.25;5020846;28;20463;-79
2021/07/05 05:11:04;;;;;;;9.70;6.40;;;;;;;16.10;100.00;97338.94;5021529;28;20080;-79
2021/07/05 05:13:31;;;;;;;12.20;6.40;;;;;;;16.13;100.00;97328.06;5020950;28;20050;-80
2021/07/05 05:16:00;;;;;;;13.85;6.45;;;;;;;16.15;100.00;97328.53;5006115;28;20038;-79
2021/07/05 05:18:29;;;;;;;7.78;5.55;;;;;;;16.21;100.00;97332.53;5025723;28;20046;-79
2021/07/05 05:20:57;;;;;;;8.23;6.10;;;;;;;16.23;100.00;97332.19;5019171;28;20068;-79
2021/07/05 05:23:27;;;;;;;9.07;6.28;;;;;;;16.24;100.00;97331.03;5012121;28;20050;-78
2021/07/05 05:25:54;;;;;;;10.48;5.90;;;;;;;16.27;100.00;97334.97;5000299;28;20531;-79
2021/07/05 05:28:21;;;;;;;8.73;5.70;;;;;;;16.38;100.00;97334.06;5019919;28;20459;-79
2021/07/05 05:30:49;;;;;;;7.82;5.57;;;;;;;16.45;100.00;97328.72;5022924;28;20378;-77
2021/07/05 05:33:16;;;;;;;12.18;5.85;;;;;;;16.51;100.00;97327.28;5004345;28;20046;-79
2021/07/05 05:35:43;;;;;;;7.35;5.50;;;;;;;16.61;100.00;97328.69;5022166;28;20054;-79
2021/07/05 05:38:11;;;;;;;10.00;5.03;;;;;;;16.64;100.00;97338.88;5021442;28;20072;-79
2021/07/05 05:40:37;;;;;;;9.43;5.20;;;;;;;16.61;100.00;97323.22;5019867;28;20143;-79
2021/07/05 05:43:08;;;;;;;10.40;4.85;;;;;;;16.75;100.00;97318.00;5005453;28;20054;-80
2021/07/05 05:45:38;;;;;;;6.35;4.70;;;;;;;16.75;100.00;97313.31;5018868;28;20046;-81
2021/07/05 05:48:05;;;;;;;11.77;4.40;;;;;;;16.73;100.00;97314.84;5016775;28;20457;-78
2021/07/05 05:50:36;;;;;;;6.72;4.32;;;;;;;16.75;100.00;97313.31;5023509;28;20470;-79
2021/07/05 05:53:05;;;;;;;9.82;4.72;;;;;;;16.80;100.00;97306.78;5022944;28;20042;-79
2021/07/05 05:55:31;;;;;;;8.90;5.45;;;;;;;16.81;100.00;97314.63;5023706;28;20050;-80
2021/07/05 05:57:58;;;;;;;6.63;4.13;;;;;;;16.79;100.00;97308.72;5025199;28;20386;-81
2021/07/05 06:00:26;;;;;;;6.82;4.50;;;;;;;16.82;100.00;97320.88;5023285;28;20045;-81
2021/07/05 06:02:54;;;;;;;7.68;4.53;;;;;;;16.81;100.00;97317.34;5018877;28;20054;-81
2021/07/05 06:05:22;;;;;;;6.93;5.00;;;;;;;16.92;100.00;97309.34;4994745;28;20052;-79
2021/07/05 06:07:50;;;;;;;6.90;4.90;;;;;;;17.05;100.00;97316.22;5029705;28;20072;-80
2021/07/05 06:10:20;;;;;;;9.20;5.75;;;;;;;17.24;100.00;97323.59;4986728;28;20049;-81
2021/07/05 06:12:48;;;;;;;10.15;6.03;;;;;;;17.40;100.00;97326.94;5022536;28;20108;-80
2021/07/05 06:15:19;;;;;;;12.50;7.00;;;;;;;17.39;100.00;97325.41;5020809;28;20060;-79
2021/07/05 06:17:46;;;;;;;12.68;7.35;;;;;;;17.45;100.00;97329.38;5004265;28;20096;-78
2021/07/05 06:20:15;;;;;;;12.52;7.18;;;;;;;17.45;100.00;97332.13;5017581;28;20179;-81
2021/07/05 06:23:01;;;;;;;11.23;7.45;;;;;;;17.45;100.00;97308.28;5013963;28;20513;-79
2021/07/05 06:25:31;;;;;;;17.73;9.82;;;;;;;17.53;100.00;97303.75;5026406;28;20155;-80
2021/07/05 06:27:57;;;;;;;14.00;7.10;;;;;;;17.72;100.00;97300.13;5033561;28;20049;-79
2021/07/05 06:30:24;;;;;;;10.20;6.90;;;;;;;17.73;100.00;97301.69;5039066;28;20049;-79
2021/07/05 06:32:52;;;;;;;9.07;6.47;;;;;;;17.71;100.00;97301.25;5038104;28;20045;-79
2021/07/05 06:35:19;;;;;;;9.60;6.78;;;;;;;17.73;100.00;97305.22;5018638;28;20057;-77
2021/07/05 06:37:46;;;;;;;9.80;6.07;;;;;;;17.66;100.00;97318.78;5039375;28;20041;-79
2021/07/05 06:40:16;;;;;;;11.18;5.95;;;;;;;17.63;100.00;97314.06;5031728;28;20041;-79
2021/07/05 06:42:42;;;;;;;8.68;6.15;;;;;;;17.55;100.00;97317.84;5031513;28;20137;-79
2021/07/05 06:45:09;;;;;;;7.55;5.95;;;;;;;17.55;100.00;97319.81;5034983;28;20390;-78
2021/07/05 06:47:35;;;;;;;8.38;6.10;;;;;;;17.49;100.00;97313.81;5020692;28;20045;-79
2021/07/05 06:50:04;;;;;;;10.40;6.60;;;;;;;17.50;100.00;97314.63;5017216;28;20050;-79
2021/07/05 06:52:33;;;;;;;10.02;6.45;;;;;;;17.68;100.00;97316.47;5035705;28;20128;-79
2021/07/05 06:55:04;;;;;;;10.43;6.53;;;;;;;17.78;100.00;97310.38;5036703;28;20049;-79
2021/07/05 06:57:33;;;;;;;8.23;6.03;;;;;;;18.06;100.00;97320.94;4999234;28;20551;-77
2021/07/05 07:00:04;;;;;;;10.65;5.60;;;;;;;18.28;100.00;97311.03;5010127;28;20045;-78
2021/07/05 07:02:33;;;;;;;11.43;5.80;;;;;;;18.38;100.00;97291.19;5029252;28;20115;-78
2021/07/05 07:04:59;;;;;;;12.98;5.72;;;;;;;18.61;100.00;97297.34;5011084;28;20045;-78
2021/07/05 07:07:26;;;;;;;10.48;5.13;;;;;;;18.72;100.00;97301.00;5012347;28;20050;-77
2021/07/05 07:09:52;;;;;;;10.23;5.20;;;;;;;18.32;100.00;97285.28;5031751;28;20098;-77
2021/07/05 07:12:19;;;;;;;7.70;5.07;;;;;;;18.21;100.00;97284.34;5012663;28;20048;-80
2021/07/05 07:14:47;;;;;;;10.23;5.10;;;;;;;18.32;100.00;97301.72;5030205;28;20045;-80
2021/07/05 07:19:53;;;;;;;7.22;4.10;;;;;;;18.49;100.00;97301.16;5027711;28;20045;-80
2021/07/05 07:22:20;;;;;;;7.30;4.13;;;;;;;18.70;100.00;97294.31;4994719;28;20046;-80
2021/07/05 07:24:48;;;;;;;5.40;3.58;;;;;;;18.80;100.00;97299.94;4993572;28;20038;-78
2021/07/05 07:27:14;;;;;;;6.60;3.65;;;;;;;18.76;100.00;97293.63;5012747;28;20053;-80
2021/07/05 07:29:42;;;;;;;6.38;3.88;;;;;;;19.03;100.00;97308.78;4993351;28;20065;-79
2021/07/05 07:32:08;;;;;;;5.53;3.28;;;;;;;18.98;100.00;97303.63;4978946;28;20050;-77
2021/07/05 07:34:35;;;;;;;7.93;3.38;;;;;;;18.83;100.00;97309.34;4992598;28;20049;-79
2021/07/05 07:37:04;;;;;;;10.35;3.85;;;;;;;18.95;100.00;97287.94;5011840;28;20050;-80
2021/07/05 07:39:43;;;;;;;5.93;3.13;;;;;;;19.36;100.00;97291.41;5010282;28;20108;-79
2021/07/05 07:42:12;;;;;;;4.18;3.17;;;;;;;19.32;100.00;97293.34;5011200;28;20054;-80
2021/07/05 07:44:38;;;;;;;7.15;3.20;;;;;;;19.53;100.00;97293.56;5011529;28;20050;-79
2021/07/05 07:47:05;;;;;;;7.78;3.70;;;;;;;19.58;100.00;97295.94;5012280;28;20053;-80
2021/07/05 07:49:33;;;;;;;3.67;3.00;;;;;;;19.72;100.00;97287.78;5013096;28;20052;-79
2021/07/05 07:52:01;;;;;;;5.80;3.50;;;;;;;19.46;100.00;97282.50;5012925;28;20503;-80
2021/07/05 07:54:27;;;;;;;4.72;3.42;;;;;;;19.77;100.00;97279.19;4994469;28;20041;-79
2021/07/05 07:56:54;;;;;;;6.82;3.60;;;;;;;20.35;100.00;97272.84;4993924;28;20050;-79
2021/07/05 07:59:23;;;;;;;7.07;3.90;;;;;;;20.52;100.00;97270.13;5010980;28;20044;-79
2021/07/05 08:01:50;;;;;;;8.25;3.40;;;;;;;20.30;100.00;97270.47;5010772;28;20084;-79
2021/07/05 08:04:17;;;;;;;8.40;2.90;;;;;;;19.80;100.00;97275.66;5009923;28;20077;-80
2021/07/05 08:06:43;;;;;;;7.22;3.70;;;;;;;19.36;100.00;97271.44;5011209;28;20060;-79
2021/07/05 08:09:10;;;;;;;6.55;3.70;;;;;;;18.96;100.00;97275.00;5008676;28;20042;-79
2021/07/05 08:11:37;;;;;;;7.20;4.10;;;;;;;18.90;100.00;97280.03;4987588;28;20038;-79
2021/07/05 08:14:06;;;;;;;7.68;3.15;;;;;;;18.88;100.00;97281.59;4999800;28;20479;-80
2021/07/05 08:16:33;;;;;;;6.70;3.03;;;;;;;19.20;100.00;97285.41;4990163;28;20054;-79
2021/07/05 08:19:00;;;;;;;6.75;3.40;;;;;;;19.74;100.00;97274.44;4991590;28;20046;-79
2021/07/05 08:21:27;;;;;;;4.18;2.70;;;;;;;20.15;100.00;97271.53;4991600;28;20053;-79
2021/07/05 08:23:54;;;;;;;4.07;2.72;;;;;;;20.62;100.00;97271.34;4986926;28;20050;-79
2021/07/05 08:26:24;;;;;;;6.68;2.63;;;;;;;20.81;100.00;97253.69;5014071;22;20048;-80
2021/07/05 08:28:53;;;;;;;4.78;2.53;;;;;;;21.36;100.00;97267.94;4997643;28;20087;-80
2021/07/05 08:31:19;;;;;;;5.35;2.03;;;;;;;21.64;100.00;97262.38;5033528;28;20042;-81
2021/07/05 08:33:47;;;;;;;4.45;2.30;;;;;;;21.91;100.00;97269.03;5034223;28;20034;-80
2021/07/05 08:36:14;;;;;;;3.75;2.40;;;;;;;21.79;100.00;97272.19;5058718;28;20044;-80
2021/07/05 08:38:40;;;;;;;4.95;2.60;;;;;;;21.12;100.00;97266.72;5022702;28;20476;-79
2021/07/05 08:41:07;;;;;;;4.07;2.80;;;;;;;20.92;100.00;97277.31;5063880;22;20427;-84
2021/07/05 08:43:35;;;;;;;7.32;2.80;;;;;;;20.50;100.00;97274.44;5027953;28;20053;-84
2021/07/05 08:46:06;;;;;;;5.47;2.85;;;;;;;20.58;100.00;97256.78;5036839;28;20050;-83
2021/07/05 08:48:36;;;;;;;4.43;2.40;;;;;;;21.05;100.00;97267.50;5018908;28;20175;-81
2021/07/05 08:51:07;;;;;;;3.80;2.22;;;;;;;21.14;100.00;97256.13;5038344;28;20052;-82
2021/07/05 08:53:34;;;;;;;4.85;2.10;;;;;;;21.64;100.00;97257.66;5019729;28;20045;-82
2021/07/05 08:56:01;;;;;;;3.38;1.75;;;;;;;21.55;100.00;97262.03;5037314;28;20045;-80
2021/07/05 08:58:28;;;;;;;6.10;2.20;;;;;;;21.78;100.00;97262.38;5019004;28;20053;-82
2021/07/05 09:00:55;;;;;;;3.53;1.88;;;;;;;22.01;100.00;97254.47;5036811;28;20045;-81
2021/07/05 09:03:24;;;;;;;2.58;1.70;;;;;;;22.12;100.00;97246.94;5038535;28;20105;-79
2021/07/05 09:06:11;;;;;;;6.63;1.90;;;;;;;22.71;100.00;97250.59;5036865;28;20053;-81
2021/07/05 09:08:40;;;;;;;3.30;1.80;;;;;;;22.94;100.00;97247.31;5018945;28;20050;-81
2021/07/05 09:11:08;;;;;;;4.00;1.60;;;;;;;22.45;100.00;97247.59;5019532;28;20044;-83
2021/07/05 09:13:52;;;;;;;2.55;1.50;;;;;;;22.02;100.00;97252.47;5037072;28;20055;-82
2021/07/05 09:16:33;;;;;;;4.75;1.73;;;;;;;22.02;100.00;97242.25;5036554;28;20045;-81
2021/07/05 09:19:02;;;;;;;2.40;1.55;;;;;;;22.19;100.00;97235.09;5049776;28;20049;-82
2021/07/05 09:21:31;;;;;;;1.92;1.50;;;;;;;22.35;100.00;97235.41;5054891;28;20113;-80
2021/07/05 09:24:06;;;;;;;2.47;1.38;;;;;;;22.70;100.00;97238.00;5036363;28;20059;-81
2021/07/05 09:26:34;;;;;;;2.75;1.23;;;;;;;22.29;100.00;97237.81;5055856;28;20090;-82
2021/07/05 09:29:05;;;;;;;6.10;1.42;;;;;;;22.59;100.00;97241.97;5056379;28;20061;-83
2021/07/05 09:31:46;;;;;;;3.30;1.40;;;;;;;22.65;100.00;97243.97;5038329;28;20041;-80
2021/07/05 09:34:27;;;;;;;3.80;1.73;;;;;;;22.18;100.00;97245.34;5037974;28;20044;-80
2021/07/05 09:37:08;;;;;;;5.78;1.70;;;;;;;22.76;100.00;97241.13;5037324;28;20045;-82
2021/07/05 09:39:35;;;;;;;2.85;1.60;;;;;;;22.54;100.00;97243.19;5037761;28;20041;-84
2021/07/05 09:42:07;;;;;;;4.50;1.70;;;;;;;22.60;100.00;97251.84;5038419;28;20110;-82
2021/07/05 09:44:40;;;;;;;2.55;1.40;;;;;;;22.40;100.00;97253.53;5054997;28;20049;-83
2021/07/05 09:47:14;;;;;;;5.15;1.50;;;;;;;22.51;100.00;97257.00;5037872;28;20049;-83
2021/07/05 09:49:41;;;;;;;2.97;1.30;;;;;;;22.43;100.00;97253.50;5055106;28;20447;-83
2021/07/05 09:52:09;;;;;;;7.43;1.50;;;;;;;22.35;100.00;97255.50;5055602;28;20063;-82
2021/07/05 09:54:40;;;;;;;3.35;1.23;;;;;;;21.92;100.00;97256.84;5054598;28;20045;-82
2021/07/05 09:57:25;;;;;;;6.57;1.30;;;;;;;21.80;100.00;97257.25;5036554;28;20103;-81
2021/07/05 10:00:08;;;;;;;3.65;1.30;;;;;;;21.85;100.00;97270.63;5037092;28;20041;-82
2021/07/05 10:02:36;;;;;;;5.47;1.48;;;;;;;21.72;100.00;97270.25;5037521;28;20041;-81
2021/07/05 10:05:17;;;;;;;2.67;1.40;;;;;;;22.01;100.00;97259.19;5055704;28;20053;-83
2021/07/05 10:07:57;;;;;;;2.33;1.20;;;;;;;22.31;100.00;97264.97;5038777;28;20523;-82
2021/07/05 10:10:24;;;;;;;2.10;1.20;;;;;;;22.31;100.00;97257.50;5054912;28;20041;-82
2021/07/05 10:12:57;;;;;;;6.65;1.38;;;;;;;22.59;100.00;97264.84;5043087;28;20503;-83
2021/07/05 10:15:48;;;;;;;1.55;1.20;;;;;;;22.54;100.00;97264.47;5038322;28;20029;-82
2021/07/05 10:18:42;;;;;;;1.77;1.10;;;;;;;22.35;100.00;97277.56;5009425;28;20045;-81
2021/07/05 10:21:12;;;;;;;1.88;1.10;;;;;;;22.42;100.00;97281.50;4999394;28;20065;-82
2021/07/05 10:23:39;;;;;;;6.18;1.30;;;;;;;22.55;100.00;97271.56;5026866;28;20053;-81
2021/07/05 10:26:06;;;;;;;3.65;1.33;;;;;;;22.93;100.00;97268.63;5020475;28;20060;-81
2021/07/05 10:28:33;;;;;;;3.65;1.20;;;;;;;23.34;100.00;97276.19;5015816;28;20053;-81
2021/07/05 10:31:01;;;;;;;3.45;1.23;;;;;;;23.12;100.00;97272.84;5035237;28;20095;-83
2021/07/05 10:33:27;;;;;;;2.90;1.25;;;;;;;22.76;100.00;97263.22;5034116;28;20045;-82
2021/07/05 10:35:57;;;;;;;2.17;1.10;;;;;;;23.29;100.00;97265.59;5006670;28;20144;-83
2021/07/05 10:38:34;;;;;;;1.70;1.13;;;;;;;23.13;100.00;97276.34;5041865;28;20041;-85
2021/07/05 10:41:08;;;;;;;3.15;1.20;;;;;;;23.08;100.00;97269.31;5012576;28;20095;-83
2021/07/05 10:43:53;;;;;;;3.83;1.30;;;;;;;22.92;100.00;97257.97;5026973;28;20051;-81
2021/07/05 10:46:48;;;;;;;1.58;1.20;;;;;;;23.09;100.00;97264.56;4989293;28;20050;-82
2021/07/05 10:49:30;;;;;;;2.45;1.50;;;;;;;23.38;100.00;97260.44;5023123;28;20392;-82
2021/07/05 10:51:59;;;;;;;3.17;1.20;;;;;;;23.00;100.00;97261.47;5031445;28;20052;-80
2021/07/05 10:54:42;;;;;;;7.13;1.10;;;;;;;23.35;100.00;97256.47;5042000;28;20072;-81
2021/07/05 10:57:11;;;;;;;2.65;1.15;;;;;;;22.85;100.00;97266.31;5033497;28;20114;-80
2021/07/05 10:59:40;;;;;;;2.22;1.02;;;;;;;22.66;100.00;97267.59;5050991;28;20340;-79
2021/07/05 11:02:40;;;;;;;3.92;1.25;;;;;;;22.15;100.00;97273.72;5030739;28;20080;-84
2021/07/05 11:05:37;;;;;;;1.27;1.13;;;;;;;22.01;100.00;97267.47;5050693;28;20129;-82
2021/07/05 11:08:16;;;;;;;4.75;1.48;;;;;;;22.06;100.00;97262.31;5050327;28;20455;-81
2021/07/05 11:10:44;;;;;;;2.17;1.30;;;;;;;22.22;100.00;97267.41;5023896;28;20037;-83
2021/07/05 11:13:11;;;;;;;2.97;1.40;;;;;;;22.42;100.00;97278.72;5016124;28;20076;-82
2021/07/05 11:15:45;;;;;;;2.58;1.30;;;;;;;22.38;100.00;97262.19;5046570;28;20037;-83
2021/07/05 11:18:37;;;;;;;7.15;1.40;;;;;;;22.67;100.00;97258.13;5054357;28;20488;-81
2021/07/05 11:21:09;;;;;;;1.95;1.35;;;;;;;22.86;100.00;97263.16;5053310;28;20045;-82
2021/07/05 11:23:53;;;;;;;3.63;1.27;;;;;;;22.83;100.00;97263.97;5043005;28;20044;-82
2021/07/05 11:26:23;;;;;;;2.33;1.30;;;;;;;22.97;100.00;97270.56;5033922;28;20499;-82
2021/07/05 11:29:15;;;;;;;6.32;1.23;;;;;;;23.12;100.00;97261.00;5017317;28;20428;-81
2021/07/05 11:31:52;;;;;;;2.28;1.30;;;;;;;23.32;100.00;97273.06;5034199;28;20051;-80
2021/07/05 11:34:31;;;;;;;2.20;1.10;;;;;;;24.11;100.00;97250.63;5033946;28;20042;-79